Lamont, FL (32336)

6:21 PM EDT on July 02, 2015 (GMT -0400)
Jefferson County Middle/High School WeatherSTEM | | Change Station
CLOSE
Current Station
Personal Weather Station
Location: Monticello, FL
Elevation: 167 ft
Nearby Weather Stations

Elev 167 ft 30.49 °N, 83.88 °W | Updated 4 minutes ago

Rain
Rain
76.5 °F
Feels Like 78 °F
N
1.0
Wind Variable Wind from SW
Gusts 3.0 mph

Today
High -- | Low -- °F
--% Chance of Precip.
Yesterday
High -- | Low -- °F
Precip. -- in
6:37 AM 8:41 PM
Full, 99% visible
Pressure 30.07 in
Visibility 10.0 miles
Clouds Scattered Clouds 15000 ft
Overcast 20000 ft
Heat Index 78 °F
Dew Point 71 °F
Humidity 82%
Rainfall 0.06 in
Snow Depth Not available.
UV 1.1 out of 12
Pollen .50 out of 12
Air Quality Not available.
Flu Activity Not available.
METAR KTLH 022153Z 36003KT 10SM SCT150 OVC200 26/22 A3007 RMK AO2 SLP182 P0002 T02560217 $

More Conditions Fewer Conditions

Pressure 30.07 in
Visibility 10.0 miles
Clouds Scattered Clouds 15000 ft
Overcast 20000 ft
Heat Index 78 °F
Dew Point 71 °F
Humidity 82%
Rainfall 0.06 in
Snow Depth Not available.
UV 1.1 out of 12
Pollen .50 out of 12
Air Quality Not available.
Flu Activity Not available.
METAR KTLH 022153Z 36003KT 10SM SCT150 OVC200 26/22 A3007 RMK AO2 SLP182 P0002 T02560217 $

More Conditions Fewer Conditions

10-Day Weather Forecast

×

Almanac

Astronomy

Jul. 02, 2015 Rise Set
Actual Time
Civil Twilight
Nautical Twilight
Astronomical Twilight
Moon
Length of Visible Light
Length of Day
Tomorrow will be .
, % of the Moon is Illuminated

Today's Extremes

State Highs State Lows

Community

WunderPhotos

Upload Photos

1,834,561 photos uploaded!

WunderBlogs® & News

Nearby

Air Quality

  Air Quality AQ Index Pollutant
Not available.

Snow Depth

Station Depth Elevation

Earthquake Activity

City Distance Mag. Time & Date
Minimum magnitude displayed is 2.5.

Coastal Water Temperatures

Place Temperature

Stations

Nearby Weather Stations

Station Location Temp. Windchill Dew Point Humidity Wind Precip. Elev Updated Type